sensor_id;sensor_type;location;lat;lon;timestamp;pressure;altitude;pressure_sealevel;temperature;humidity
77013;BME280;67260;53.130;17.982;2023-04-24T00:00:57;100132.02;;;13.70;75.48
77013;BME280;67260;53.130;17.982;2023-04-24T00:03:25;100134.30;;;13.69;75.82
77013;BME280;67260;53.130;17.982;2023-04-24T00:05:51;100134.38;;;13.67;75.72
77013;BME280;67260;53.130;17.982;2023-04-24T00:08:18;100134.30;;;13.62;75.68
77013;BME280;67260;53.130;17.982;2023-04-24T00:10:44;100134.30;;;13.60;75.73
77013;BME280;67260;53.130;17.982;2023-04-24T00:13:10;100132.70;;;13.57;75.70
77013;BME280;67260;53.130;17.982;2023-04-24T00:15:36;100128.33;;;13.54;75.48
77013;BME280;67260;53.130;17.982;2023-04-24T00:18:02;100127.88;;;13.52;75.61
77013;BME280;67260;53.130;17.982;2023-04-24T00:20:28;100125.02;;;13.49;75.58
77013;BME280;67260;53.130;17.982;2023-04-24T00:22:59;100119.59;;;13.44;75.73
77013;BME280;67260;53.130;17.982;2023-04-24T00:25:25;100114.13;;;13.43;75.92
77013;BME280;67260;53.130;17.982;2023-04-24T00:27:51;100114.58;;;13.41;75.98
77013;BME280;67260;53.130;17.982;2023-04-24T00:30:17;100116.88;;;13.41;75.94
77013;BME280;67260;53.130;17.982;2023-04-24T00:32:43;100113.47;;;13.42;75.78
77013;BME280;67260;53.130;17.982;2023-04-24T00:35:10;100110.51;;;13.43;75.95
77013;BME280;67260;53.130;17.982;2023-04-24T00:37:37;100107.89;;;13.43;76.00
77013;BME280;67260;53.130;17.982;2023-04-24T00:40:04;100102.92;;;13.44;76.02
77013;BME280;67260;53.130;17.982;2023-04-24T00:42:30;100096.64;;;13.44;76.01
77013;BME280;67260;53.130;17.982;2023-04-24T00:44:57;100092.20;;;13.43;75.99
77013;BME280;67260;53.130;17.982;2023-04-24T00:47:24;100087.23;;;13.40;76.20
77013;BME280;67260;53.130;17.982;2023-04-24T00:49:51;100087.73;;;13.41;76.18
77013;BME280;67260;53.130;17.982;2023-04-24T00:52:17;100088.70;;;13.42;76.15
77013;BME280;67260;53.130;17.982;2023-04-24T00:54:44;100094.67;;;13.45;76.17
77013;BME280;67260;53.130;17.982;2023-04-24T00:57:14;100095.67;;;13.44;76.24
77013;BME280;67260;53.130;17.982;2023-04-24T00:59:43;100093.68;;;13.43;76.36
77013;BME280;67260;53.130;17.982;2023-04-24T01:02:11;100096.67;;;13.43;76.30
77013;BME280;67260;53.130;17.982;2023-04-24T01:04:37;100089.25;;;13.43;76.27
77013;BME280;67260;53.130;17.982;2023-04-24T01:07:04;100092.45;;;13.45;76.25
77013;BME280;67260;53.130;17.982;2023-04-24T01:09:38;100091.98;;;13.46;76.39
77013;BME280;67260;53.130;17.982;2023-04-24T01:12:06;100088.92;;;13.46;76.39
77013;BME280;67260;53.130;17.982;2023-04-24T01:14:33;100081.45;;;13.45;76.46
77013;BME280;67260;53.130;17.982;2023-04-24T01:16:59;100087.92;;;13.43;76.42
77013;BME280;67260;53.130;17.982;2023-04-24T01:19:27;100088.74;;;13.41;76.60
77013;BME280;67260;53.130;17.982;2023-04-24T01:21:57;100082.10;;;13.39;76.54
77013;BME280;67260;53.130;17.982;2023-04-24T01:24:24;100075.60;;;13.37;76.64
77013;BME280;67260;53.130;17.982;2023-04-24T01:26:50;100072.39;;;13.33;76.65
77013;BME280;67260;53.130;17.982;2023-04-24T01:29:18;100069.42;;;13.32;76.78
77013;BME280;67260;53.130;17.982;2023-04-24T01:31:45;100073.33;;;13.29;76.79
77013;BME280;67260;53.130;17.982;2023-04-24T01:34:13;100076.02;;;13.27;76.96
77013;BME280;67260;53.130;17.982;2023-04-24T01:36:41;100076.42;;;13.23;77.33
77013;BME280;67260;53.130;17.982;2023-04-24T01:39:07;100073.82;;;13.21;77.34
77013;BME280;67260;53.130;17.982;2023-04-24T01:41:34;100071.17;;;13.20;77.48
77013;BME280;67260;53.130;17.982;2023-04-24T01:44:00;100072.76;;;13.19;77.44
77013;BME280;67260;53.130;17.982;2023-04-24T01:46:27;100070.55;;;13.20;77.43
77013;BME280;67260;53.130;17.982;2023-04-24T01:48:53;100068.63;;;13.22;77.32
77013;BME280;67260;53.130;17.982;2023-04-24T01:51:20;100065.50;;;13.24;77.31
77013;BME280;67260;53.130;17.982;2023-04-24T01:53:50;100065.68;;;13.25;77.24
77013;BME280;67260;53.130;17.982;2023-04-24T01:56:16;100067.31;;;13.27;77.26
77013;BME280;67260;53.130;17.982;2023-04-24T01:58:43;100065.80;;;13.26;77.49
77013;BME280;67260;53.130;17.982;2023-04-24T02:01:15;100068.09;;;13.25;77.34
77013;BME280;67260;53.130;17.982;2023-04-24T02:03:44;100069.72;;;13.24;77.53
77013;BME280;67260;53.130;17.982;2023-04-24T02:06:10;100068.41;;;13.24;77.61
77013;BME280;67260;53.130;17.982;2023-04-24T02:08:36;100063.08;;;13.22;77.88
77013;BME280;67260;53.130;17.982;2023-04-24T02:11:02;100061.41;;;13.19;77.94
77013;BME280;67260;53.130;17.982;2023-04-24T02:13:32;100060.44;;;13.14;77.89
77013;BME280;67260;53.130;17.982;2023-04-24T02:15:58;100059.58;;;13.10;78.17
77013;BME280;67260;53.130;17.982;2023-04-24T02:18:24;100057.23;;;13.07;78.05
77013;BME280;67260;53.130;17.982;2023-04-24T02:20:50;100052.60;;;13.05;78.06
77013;BME280;67260;53.130;17.982;2023-04-24T02:23:16;100043.80;;;13.02;78.15
77013;BME280;67260;53.130;17.982;2023-04-24T02:25:42;100036.41;;;13.01;78.20
77013;BME280;67260;53.130;17.982;2023-04-24T02:28:08;100042.46;;;12.99;78.10
77013;BME280;67260;53.130;17.982;2023-04-24T02:30:34;100039.61;;;13.01;78.14
77013;BME280;67260;53.130;17.982;2023-04-24T02:33:01;100039.92;;;13.03;78.01
77013;BME280;67260;53.130;17.982;2023-04-24T02:35:28;100040.52;;;13.06;78.03
77013;BME280;67260;53.130;17.982;2023-04-24T02:37:54;100043.35;;;13.09;78.13
77013;BME280;67260;53.130;17.982;2023-04-24T02:40:20;100041.66;;;13.14;77.93
77013;BME280;67260;53.130;17.982;2023-04-24T02:42:48;100039.69;;;13.16;77.92
77013;BME280;67260;53.130;17.982;2023-04-24T02:45:14;100033.33;;;13.16;77.98
77013;BME280;67260;53.130;17.982;2023-04-24T02:47:40;100031.20;;;13.16;77.79
77013;BME280;67260;53.130;17.982;2023-04-24T02:50:07;100026.36;;;13.16;77.66
77013;BME280;67260;53.130;17.982;2023-04-24T02:52:34;100024.92;;;13.19;77.66
77013;BME280;67260;53.130;17.982;2023-04-24T02:55:00;100024.54;;;13.21;77.47
77013;BME280;67260;53.130;17.982;2023-04-24T02:57:26;100025.18;;;13.21;77.65
77013;BME280;67260;53.130;17.982;2023-04-24T02:59:52;100024.23;;;13.22;77.63
77013;BME280;67260;53.130;17.982;2023-04-24T03:02:19;100027.75;;;13.22;77.68
77013;BME280;67260;53.130;17.982;2023-04-24T03:04:47;100030.04;;;13.22;77.61
77013;BME280;67260;53.130;17.982;2023-04-24T03:07:16;100033.77;;;13.22;77.48
77013;BME280;67260;53.130;17.982;2023-04-24T03:09:42;100031.84;;;13.21;77.54
77013;BME280;67260;53.130;17.982;2023-04-24T03:12:08;100032.67;;;13.20;77.56
77013;BME280;67260;53.130;17.982;2023-04-24T03:14:34;100032.44;;;13.18;77.57
77013;BME280;67260;53.130;17.982;2023-04-24T03:17:01;100031.91;;;13.16;77.42
77013;BME280;67260;53.130;17.982;2023-04-24T03:19:27;100032.63;;;13.12;77.37
77013;BME280;67260;53.130;17.982;2023-04-24T03:22:04;100037.27;;;13.06;77.32
77013;BME280;67260;53.130;17.982;2023-04-24T03:24:31;100036.48;;;13.01;77.06
77013;BME280;67260;53.130;17.982;2023-04-24T03:26:57;100043.59;;;12.97;77.23
77013;BME280;67260;53.130;17.982;2023-04-24T03:29:42;100042.05;;;12.92;77.36
77013;BME280;67260;53.130;17.982;2023-04-24T03:32:09;100044.20;;;12.90;77.46
77013;BME280;67260;53.130;17.982;2023-04-24T03:34:36;100049.39;;;12.90;77.37
77013;BME280;67260;53.130;17.982;2023-04-24T03:37:02;100050.43;;;12.92;77.38
77013;BME280;67260;53.130;17.982;2023-04-24T03:39:29;100051.31;;;12.91;77.71
77013;BME280;67260;53.130;17.982;2023-04-24T03:41:56;100050.02;;;12.84;77.85
77013;BME280;67260;53.130;17.982;2023-04-24T03:44:29;100045.54;;;12.78;77.69
77013;BME280;67260;53.130;17.982;2023-04-24T03:46:55;100039.29;;;12.75;77.65
77013;BME280;67260;53.130;17.982;2023-04-24T03:49:22;100040.22;;;12.76;77.71
77013;BME280;67260;53.130;17.982;2023-04-24T03:51:48;100041.13;;;12.76;77.85
77013;BME280;67260;53.130;17.982;2023-04-24T03:54:20;100035.02;;;12.74;78.17
77013;BME280;67260;53.130;17.982;2023-04-24T03:56:47;100031.03;;;12.72;78.12
77013;BME280;67260;53.130;17.982;2023-04-24T03:59:15;100026.57;;;12.70;78.29
77013;BME280;67260;53.130;17.982;2023-04-24T04:01:44;100023.40;;;12.67;78.67
77013;BME280;67260;53.130;17.982;2023-04-24T04:04:13;100022.13;;;12.63;78.67
77013;BME280;67260;53.130;17.982;2023-04-24T04:06:40;100022.61;;;12.62;78.86
77013;BME280;67260;53.130;17.982;2023-04-24T04:09:07;100014.81;;;12.60;79.02
77013;BME280;67260;53.130;17.982;2023-04-24T04:11:35;100008.33;;;12.64;79.10
77013;BME280;67260;53.130;17.982;2023-04-24T04:14:01;100007.53;;;12.73;78.90
77013;BME280;67260;53.130;17.982;2023-04-24T04:16:27;100006.69;;;12.79;78.84
77013;BME280;67260;53.130;17.982;2023-04-24T04:18:58;100011.15;;;12.84;78.58
77013;BME280;67260;53.130;17.982;2023-04-24T04:21:27;100007.02;;;12.88;78.89
77013;BME280;67260;53.130;17.982;2023-04-24T04:23:58;100013.73;;;12.94;78.65
77013;BME280;67260;53.130;17.982;2023-04-24T04:26:31;100009.05;;;13.01;78.64
77013;BME280;67260;53.130;17.982;2023-04-24T04:29:05;100005.19;;;13.08;78.74
77013;BME280;67260;53.130;17.982;2023-04-24T04:31:35;99999.99;;;13.13;78.83
77013;BME280;67260;53.130;17.982;2023-04-24T04:34:06;99997.61;;;13.16;78.99
77013;BME280;67260;53.130;17.982;2023-04-24T04:36:34;99996.33;;;13.16;78.84
77013;BME280;67260;53.130;17.982;2023-04-24T04:39:11;100004.59;;;13.21;78.72
77013;BME280;67260;53.130;17.982;2023-04-24T04:41:50;100006.55;;;13.30;78.45
77013;BME280;67260;53.130;17.982;2023-04-24T04:44:17;100007.81;;;13.39;78.28
77013;BME280;67260;53.130;17.982;2023-04-24T04:46:43;100004.98;;;13.48;78.36
77013;BME280;67260;53.130;17.982;2023-04-24T04:49:17;100004.16;;;13.56;78.34
77013;BME280;67260;53.130;17.982;2023-04-24T04:51:44;100003.94;;;13.62;78.47
77013;BME280;67260;53.130;17.982;2023-04-24T04:54:11;100005.02;;;13.67;78.44
77013;BME280;67260;53.130;17.982;2023-04-24T04:56:37;99995.80;;;13.71;78.41
77013;BME280;67260;53.130;17.982;2023-04-24T04:59:07;99991.45;;;13.77;78.13
77013;BME280;67260;53.130;17.982;2023-04-24T05:01:35;99990.94;;;13.86;77.84
77013;BME280;67260;53.130;17.982;2023-04-24T05:04:02;99991.53;;;13.98;77.37
77013;BME280;67260;53.130;17.982;2023-04-24T05:06:29;99990.30;;;14.15;76.88
77013;BME280;67260;53.130;17.982;2023-04-24T05:09:00;99989.64;;;14.34;76.21
77013;BME280;67260;53.130;17.982;2023-04-24T05:11:37;99988.13;;;14.49;75.79
77013;BME280;67260;53.130;17.982;2023-04-24T05:14:03;99983.55;;;14.55;75.64
77013;BME280;67260;53.130;17.982;2023-04-24T05:16:36;99985.02;;;14.60;75.58
77013;BME280;67260;53.130;17.982;2023-04-24T05:19:04;99981.30;;;14.67;75.18
77013;BME280;67260;53.130;17.982;2023-04-24T05:21:35;99977.66;;;14.72;75.08
77013;BME280;67260;53.130;17.982;2023-04-24T05:24:01;99979.46;;;14.76;74.84
77013;BME280;67260;53.130;17.982;2023-04-24T05:26:50;99975.08;;;14.75;74.65
77013;BME280;67260;53.130;17.982;2023-04-24T05:29:20;99977.19;;;14.83;74.24
77013;BME280;67260;53.130;17.982;2023-04-24T05:31:47;99973.50;;;14.99;74.14
77013;BME280;67260;53.130;17.982;2023-04-24T05:34:14;99980.84;;;15.27;73.55
77013;BME280;67260;53.130;17.982;2023-04-24T05:36:42;99982.40;;;15.96;71.65
77013;BME280;67260;53.130;17.982;2023-04-24T05:39:08;99984.61;;;18.42;66.26
77013;BME280;67260;53.130;17.982;2023-04-24T05:41:34;99983.45;;;20.29;61.44
77013;BME280;67260;53.130;17.982;2023-04-24T05:44:00;99979.73;;;21.30;60.70
77013;BME280;67260;53.130;17.982;2023-04-24T05:46:26;99977.86;;;20.64;62.22
77013;BME280;67260;53.130;17.982;2023-04-24T05:48:54;99979.10;;;19.83;61.82
77013;BME280;67260;53.130;17.982;2023-04-24T05:51:20;99982.70;;;18.98;62.70
77013;BME280;67260;53.130;17.982;2023-04-24T05:53:46;99979.31;;;18.26;64.18
77013;BME280;67260;53.130;17.982;2023-04-24T05:56:12;99974.26;;;17.79;65.56
77013;BME280;67260;53.130;17.982;2023-04-24T05:58:38;99978.60;;;17.50;65.78
77013;BME280;67260;53.130;17.982;2023-04-24T06:01:05;99975.02;;;17.21;66.26
77013;BME280;67260;53.130;17.982;2023-04-24T06:03:32;99975.27;;;17.00;66.48
77013;BME280;67260;53.130;17.982;2023-04-24T06:05:58;99978.56;;;16.78;66.60
77013;BME280;67260;53.130;17.982;2023-04-24T06:08:25;99981.68;;;16.62;67.04
77013;BME280;67260;53.130;17.982;2023-04-24T06:10:52;99982.80;;;16.55;67.05
77013;BME280;67260;53.130;17.982;2023-04-24T06:13:19;99981.74;;;16.47;66.94
77013;BME280;67260;53.130;17.982;2023-04-24T06:16:02;99976.95;;;16.55;67.16
77013;BME280;67260;53.130;17.982;2023-04-24T06:18:33;99971.89;;;16.70;67.01
77013;BME280;67260;53.130;17.982;2023-04-24T06:21:00;99968.44;;;16.88;66.26
77013;BME280;67260;53.130;17.982;2023-04-24T06:23:26;99962.66;;;17.23;65.24
77013;BME280;67260;53.130;17.982;2023-04-24T06:25:53;99962.34;;;17.87;64.14
77013;BME280;67260;53.130;17.982;2023-04-24T06:28:19;99961.93;;;18.94;62.05
77013;BME280;67260;53.130;17.982;2023-04-24T06:30:45;99952.55;;;19.94;59.88
77013;BME280;67260;53.130;17.982;2023-04-24T06:33:11;99952.42;;;20.43;57.98
77013;BME280;67260;53.130;17.982;2023-04-24T06:35:37;99953.55;;;19.92;57.59
77013;BME280;67260;53.130;17.982;2023-04-24T06:38:06;99954.70;;;19.17;59.00
77013;BME280;67260;53.130;17.982;2023-04-24T06:40:32;99950.02;;;18.56;60.12
77013;BME280;67260;53.130;17.982;2023-04-24T06:42:59;99950.15;;;18.05;60.75
77013;BME280;67260;53.130;17.982;2023-04-24T06:45:30;99948.88;;;17.61;62.09
77013;BME280;67260;53.130;17.982;2023-04-24T06:47:56;99949.83;;;17.34;62.73
77013;BME280;67260;53.130;17.982;2023-04-24T06:50:23;99949.73;;;17.18;62.50
77013;BME280;67260;53.130;17.982;2023-04-24T06:52:49;99946.83;;;17.13;62.79
77013;BME280;67260;53.130;17.982;2023-04-24T06:55:15;99947.58;;;17.14;62.32
77013;BME280;67260;53.130;17.982;2023-04-24T06:57:59;99948.55;;;17.20;62.08
77013;BME280;67260;53.130;17.982;2023-04-24T07:00:30;99944.52;;;17.25;61.62
77013;BME280;67260;53.130;17.982;2023-04-24T07:02:56;99942.73;;;17.40;61.29
77013;BME280;67260;53.130;17.982;2023-04-24T07:05:23;99941.73;;;17.67;60.98
77013;BME280;67260;53.130;17.982;2023-04-24T07:07:57;99942.77;;;18.10;59.71
77013;BME280;67260;53.130;17.982;2023-04-24T07:11:04;99941.02;;;18.51;57.80
77013;BME280;67260;53.130;17.982;2023-04-24T07:13:34;99941.89;;;18.59;57.50
77013;BME280;67260;53.130;17.982;2023-04-24T07:16:01;99936.48;;;18.52;57.44
77013;BME280;67260;53.130;17.982;2023-04-24T07:18:38;99939.04;;;18.49;56.85
77013;BME280;67260;53.130;17.982;2023-04-24T07:21:06;99937.97;;;18.37;56.46
77013;BME280;67260;53.130;17.982;2023-04-24T07:23:33;99934.90;;;18.26;56.02
77013;BME280;67260;53.130;17.982;2023-04-24T07:26:05;99936.30;;;18.16;56.37
77013;BME280;67260;53.130;17.982;2023-04-24T07:28:31;99933.89;;;18.12;56.26
77013;BME280;67260;53.130;17.982;2023-04-24T07:30:57;99932.98;;;17.99;55.29
77013;BME280;67260;53.130;17.982;2023-04-24T07:33:26;99934.77;;;17.90;55.88
77013;BME280;67260;53.130;17.982;2023-04-24T07:36:12;99936.09;;;17.83;55.55
77013;BME280;67260;53.130;17.982;2023-04-24T07:39:13;99929.83;;;17.93;55.85
77013;BME280;67260;53.130;17.982;2023-04-24T07:41:59;99934.15;;;18.25;54.61
77013;BME280;67260;53.130;17.982;2023-04-24T07:44:35;99927.77;;;18.63;54.10
77013;BME280;67260;53.130;17.982;2023-04-24T07:47:08;99929.95;;;18.90;53.93
77013;BME280;67260;53.130;17.982;2023-04-24T07:49:42;99926.86;;;18.99;52.88
77013;BME280;67260;53.130;17.982;2023-04-24T07:52:23;99927.61;;;18.92;52.55
77013;BME280;67260;53.130;17.982;2023-04-24T07:54:49;99928.66;;;18.88;51.94
77013;BME280;67260;53.130;17.982;2023-04-24T07:57:16;99933.67;;;18.81;52.05
77013;BME280;67260;53.130;17.982;2023-04-24T07:59:43;99933.19;;;18.81;52.37
77013;BME280;67260;53.130;17.982;2023-04-24T08:02:14;99932.29;;;18.86;52.28
77013;BME280;67260;53.130;17.982;2023-04-24T08:05:02;99934.13;;;18.92;52.46
77013;BME280;67260;53.130;17.982;2023-04-24T08:07:29;99931.24;;;19.03;51.98
77013;BME280;67260;53.130;17.982;2023-04-24T08:10:06;99928.15;;;19.18;50.78
77013;BME280;67260;53.130;17.982;2023-04-24T08:12:34;99926.55;;;19.47;50.02
77013;BME280;67260;53.130;17.982;2023-04-24T08:15:00;99928.23;;;19.90;48.81
77013;BME280;67260;53.130;17.982;2023-04-24T08:17:29;99928.10;;;20.43;47.53
77013;BME280;67260;53.130;17.982;2023-04-24T08:19:56;99933.20;;;21.03;45.38
77013;BME280;67260;53.130;17.982;2023-04-24T08:22:28;99932.33;;;21.54;44.39
77013;BME280;67260;53.130;17.982;2023-04-24T08:24:54;99929.06;;;23.11;42.24
77013;BME280;67260;53.130;17.982;2023-04-24T08:27:23;99921.71;;;23.59;42.07
77013;BME280;67260;53.130;17.982;2023-04-24T08:29:50;99923.05;;;23.38;41.33
77013;BME280;67260;53.130;17.982;2023-04-24T08:32:16;99917.92;;;22.81;40.98
77013;BME280;67260;53.130;17.982;2023-04-24T08:34:43;99917.97;;;22.29;42.72
77013;BME280;67260;53.130;17.982;2023-04-24T08:37:13;99916.09;;;21.91;43.26
77013;BME280;67260;53.130;17.982;2023-04-24T08:39:40;99913.54;;;21.54;43.73
77013;BME280;67260;53.130;17.982;2023-04-24T08:42:08;99915.90;;;21.11;43.37
77013;BME280;67260;53.130;17.982;2023-04-24T08:44:36;99911.05;;;20.71;44.26
77013;BME280;67260;53.130;17.982;2023-04-24T08:47:02;99909.54;;;20.41;44.61
77013;BME280;67260;53.130;17.982;2023-04-24T08:49:29;99909.23;;;20.19;45.05
77013;BME280;67260;53.130;17.982;2023-04-24T08:51:57;99911.24;;;20.00;45.50
77013;BME280;67260;53.130;17.982;2023-04-24T08:54:25;99918.44;;;19.89;45.71
77013;BME280;67260;53.130;17.982;2023-04-24T08:56:59;99916.02;;;19.79;45.62
77013;BME280;67260;53.130;17.982;2023-04-24T08:59:34;99914.73;;;19.71;45.65
77013;BME280;67260;53.130;17.982;2023-04-24T09:02:14;99914.06;;;19.64;45.99
77013;BME280;67260;53.130;17.982;2023-04-24T09:05:33;99914.29;;;19.53;46.43
77013;BME280;67260;53.130;17.982;2023-04-24T09:08:08;99919.08;;;19.51;46.72
77013;BME280;67260;53.130;17.982;2023-04-24T09:10:37;99918.19;;;19.37;46.80
77013;BME280;67260;53.130;17.982;2023-04-24T09:13:06;99922.33;;;19.20;47.34
77013;BME280;67260;53.130;17.982;2023-04-24T09:15:35;99927.88;;;19.07;47.81
77013;BME280;67260;53.130;17.982;2023-04-24T09:18:02;99932.68;;;18.91;47.92
77013;BME280;67260;53.130;17.982;2023-04-24T09:20:29;99927.82;;;18.78;48.45
77013;BME280;67260;53.130;17.982;2023-04-24T09:22:57;99931.08;;;18.74;49.14
77013;BME280;67260;53.130;17.982;2023-04-24T09:25:34;99933.52;;;18.79;49.16
77013;BME280;67260;53.130;17.982;2023-04-24T09:28:04;99926.96;;;18.85;49.10
77013;BME280;67260;53.130;17.982;2023-04-24T09:30:37;99922.89;;;18.97;49.18
77013;BME280;67260;53.130;17.982;2023-04-24T09:33:13;99928.15;;;19.06;49.28
77013;BME280;67260;53.130;17.982;2023-04-24T09:35:49;99923.96;;;19.05;49.47
77013;BME280;67260;53.130;17.982;2023-04-24T09:38:17;99923.55;;;19.15;49.63
77013;BME280;67260;53.130;17.982;2023-04-24T09:40:43;99918.27;;;19.34;49.31
77013;BME280;67260;53.130;17.982;2023-04-24T09:43:12;99914.36;;;19.54;48.59
77013;BME280;67260;53.130;17.982;2023-04-24T09:45:39;99903.66;;;19.98;48.18
77013;BME280;67260;53.130;17.982;2023-04-24T09:48:09;99907.30;;;20.65;46.33
77013;BME280;67260;53.130;17.982;2023-04-24T09:50:36;99903.36;;;21.24;44.82
77013;BME280;67260;53.130;17.982;2023-04-24T09:53:05;99895.17;;;21.72;44.54
77013;BME280;67260;53.130;17.982;2023-04-24T09:55:40;99900.23;;;22.19;43.65
77013;BME280;67260;53.130;17.982;2023-04-24T09:58:10;99896.33;;;22.45;42.58
77013;BME280;67260;53.130;17.982;2023-04-24T10:00:37;99902.88;;;22.79;42.06
77013;BME280;67260;53.130;17.982;2023-04-24T10:03:05;99893.84;;;23.15;41.41
77013;BME280;67260;53.130;17.982;2023-04-24T10:05:35;99894.86;;;23.11;40.94
77013;BME280;67260;53.130;17.982;2023-04-24T10:08:10;99888.54;;;22.85;41.77
77013;BME280;67260;53.130;17.982;2023-04-24T10:10:41;99885.69;;;22.54;41.19
77013;BME280;67260;53.130;17.982;2023-04-24T10:13:12;99885.14;;;22.02;41.09
77013;BME280;67260;53.130;17.982;2023-04-24T10:15:39;99885.42;;;21.79;42.05
77013;BME280;67260;53.130;17.982;2023-04-24T10:18:07;99879.03;;;21.76;42.40
77013;BME280;67260;53.130;17.982;2023-04-24T10:20:40;99866.80;;;21.74;42.36
77013;BME280;67260;53.130;17.982;2023-04-24T10:23:07;99870.17;;;21.76;42.20
77013;BME280;67260;53.130;17.982;2023-04-24T10:25:35;99873.92;;;22.46;41.51
77013;BME280;67260;53.130;17.982;2023-04-24T10:28:02;99882.63;;;22.88;41.17
77013;BME280;67260;53.130;17.982;2023-04-24T10:30:31;99876.34;;;23.21;40.86
77013;BME280;67260;53.130;17.982;2023-04-24T10:33:05;99871.46;;;23.51;39.86
77013;BME280;67260;53.130;17.982;2023-04-24T10:35:37;99872.60;;;23.72;39.81
77013;BME280;67260;53.130;17.982;2023-04-24T10:38:08;99870.99;;;24.40;38.64
77013;BME280;67260;53.130;17.982;2023-04-24T10:40:39;99872.45;;;25.98;37.75
77013;BME280;67260;53.130;17.982;2023-04-24T10:43:07;99872.39;;;27.96;34.76
77013;BME280;67260;53.130;17.982;2023-04-24T10:45:38;99874.36;;;29.25;31.11
77013;BME280;67260;53.130;17.982;2023-04-24T10:48:07;99873.45;;;28.97;30.11
77013;BME280;67260;53.130;17.982;2023-04-24T10:50:45;99870.35;;;28.98;30.67
77013;BME280;67260;53.130;17.982;2023-04-24T10:53:14;99873.05;;;29.40;30.30
77013;BME280;67260;53.130;17.982;2023-04-24T10:55:41;99870.54;;;30.28;29.34
77013;BME280;67260;53.130;17.982;2023-04-24T10:58:09;99869.59;;;29.72;28.36
77013;BME280;67260;53.130;17.982;2023-04-24T11:00:38;99874.13;;;28.63;29.46
77013;BME280;67260;53.130;17.982;2023-04-24T11:03:07;99874.14;;;27.92;30.29
77013;BME280;67260;53.130;17.982;2023-04-24T11:05:50;99877.14;;;28.03;30.46
77013;BME280;67260;53.130;17.982;2023-04-24T11:14:01;99871.81;;;27.12;31.75
77013;BME280;67260;53.130;17.982;2023-04-24T11:16:47;99874.52;;;26.40;32.97
77013;BME280;67260;53.130;17.982;2023-04-24T11:19:21;99875.53;;;25.94;34.26
77013;BME280;67260;53.130;17.982;2023-04-24T11:22:14;99874.63;;;25.77;34.73
77013;BME280;67260;53.130;17.982;2023-04-24T11:27:20;99887.67;;;24.49;37.64
77013;BME280;67260;53.130;17.982;2023-04-24T11:32:36;99888.94;;;24.10;38.90
77013;BME280;67260;53.130;17.982;2023-04-24T11:35:19;99886.33;;;23.96;39.26
77013;BME280;67260;53.130;17.982;2023-04-24T11:37:53;99891.92;;;23.70;39.82
77013;BME280;67260;53.130;17.982;2023-04-24T11:40:21;99890.10;;;23.36;40.63
77013;BME280;67260;53.130;17.982;2023-04-24T11:42:52;99890.83;;;23.60;40.33
77013;BME280;67260;53.130;17.982;2023-04-24T11:45:22;99888.22;;;23.59;40.29
77013;BME280;67260;53.130;17.982;2023-04-24T11:47:52;99883.85;;;23.67;39.23
77013;BME280;67260;53.130;17.982;2023-04-24T11:50:25;99894.42;;;23.57;39.55
77013;BME280;67260;53.130;17.982;2023-04-24T11:52:52;99886.68;;;24.26;38.83
77013;BME280;67260;53.130;17.982;2023-04-24T11:57:46;99880.10;;;25.24;36.87
77013;BME280;67260;53.130;17.982;2023-04-24T12:00:18;99874.56;;;25.89;35.21
77013;BME280;67260;53.130;17.982;2023-04-24T12:02:44;99884.47;;;25.98;33.81
77013;BME280;67260;53.130;17.982;2023-04-24T12:05:23;99871.20;;;25.71;34.01
77013;BME280;67260;53.130;17.982;2023-04-24T12:07:50;99874.00;;;25.23;35.22
77013;BME280;67260;53.130;17.982;2023-04-24T12:10:23;99869.33;;;25.15;35.32
77013;BME280;67260;53.130;17.982;2023-04-24T12:12:50;99869.39;;;24.89;35.30
77013;BME280;67260;53.130;17.982;2023-04-24T12:15:24;99876.16;;;24.42;35.99
77013;BME280;67260;53.130;17.982;2023-04-24T12:17:51;99877.59;;;23.70;37.03
77013;BME280;67260;53.130;17.982;2023-04-24T12:20:28;99882.13;;;23.05;38.28
77013;BME280;67260;53.130;17.982;2023-04-24T12:22:56;99881.78;;;22.61;39.24
77013;BME280;67260;53.130;17.982;2023-04-24T12:25:25;99879.16;;;22.48;40.77
77013;BME280;67260;53.130;17.982;2023-04-24T12:28:09;99874.92;;;22.47;41.15
77013;BME280;67260;53.130;17.982;2023-04-24T12:30:47;99870.28;;;22.27;41.74
77013;BME280;67260;53.130;17.982;2023-04-24T12:33:21;99861.20;;;22.26;42.04
77013;BME280;67260;53.130;17.982;2023-04-24T12:35:51;99864.84;;;22.61;41.80
77013;BME280;67260;53.130;17.982;2023-04-24T12:38:22;99861.80;;;22.68;41.77
77013;BME280;67260;53.130;17.982;2023-04-24T12:41:06;99861.81;;;22.57;42.11
77013;BME280;67260;53.130;17.982;2023-04-24T12:43:35;99861.61;;;22.40;42.40
77013;BME280;67260;53.130;17.982;2023-04-24T12:46:02;99860.10;;;22.34;42.64
77013;BME280;67260;53.130;17.982;2023-04-24T12:48:30;99859.48;;;22.26;43.10
77013;BME280;67260;53.130;17.982;2023-04-24T12:50:59;99853.98;;;22.23;42.95
77013;BME280;67260;53.130;17.982;2023-04-24T12:53:28;99856.36;;;22.44;43.19
77013;BME280;67260;53.130;17.982;2023-04-24T12:55:57;99859.67;;;22.65;43.39
77013;BME280;67260;53.130;17.982;2023-04-24T12:58:24;99854.58;;;22.37;44.01
77013;BME280;67260;53.130;17.982;2023-04-24T13:00:50;99851.12;;;22.13;44.61
77013;BME280;67260;53.130;17.982;2023-04-24T13:03:17;99850.69;;;21.94;45.15
77013;BME280;67260;53.130;17.982;2023-04-24T13:05:43;99846.89;;;21.92;44.66
77013;BME280;67260;53.130;17.982;2023-04-24T13:08:09;99848.73;;;21.89;44.73
77013;BME280;67260;53.130;17.982;2023-04-24T13:10:36;99845.52;;;21.70;44.94